createdAt,value
2022-08-19T00:02:00.197Z,68.89
2022-08-19T00:04:32.229Z,68.47
2022-08-19T00:07:01.160Z,68.62
2022-08-19T00:09:30.623Z,69.14
2022-08-19T00:12:00.274Z,68.87
2022-08-19T00:14:32.998Z,68.93
2022-08-19T00:17:04.123Z,69.26
2022-08-19T00:19:32.711Z,69.12
2022-08-19T00:22:01.058Z,69.07
2022-08-19T00:24:30.393Z,69.02
2022-08-19T00:27:05.078Z,68.93
2022-08-19T00:29:52.481Z,69.22
2022-08-19T00:32:22.147Z,69.47
2022-08-19T00:34:50.572Z,69.11
2022-08-19T00:37:19.294Z,69.61
2022-08-19T00:39:49.225Z,68.99
2022-08-19T00:42:21.125Z,69.28
2022-08-19T00:44:50.375Z,69.34
2022-08-19T00:47:18.703Z,70.00
2022-08-19T00:49:55.482Z,70.01
2022-08-19T00:52:35.314Z,70.56
2022-08-19T00:55:06.829Z,70.41
2022-08-19T00:57:39.764Z,70.17
2022-08-19T01:00:13.521Z,70.47
2022-08-19T01:02:43.495Z,71.22
2022-08-19T01:05:22.105Z,71.53
2022-08-19T01:07:52.172Z,71.28
2022-08-19T01:10:25.553Z,71.15
2022-08-19T01:12:55.765Z,71.20
2022-08-19T01:15:31.144Z,70.91
2022-08-19T01:18:02.441Z,70.63
2022-08-19T01:20:30.940Z,70.56
2022-08-19T01:23:00.256Z,70.57
2022-08-19T01:25:45.420Z,71.43
2022-08-19T01:28:39.678Z,70.51
2022-08-19T01:31:26.514Z,70.80
2022-08-19T01:33:58.837Z,71.46
2022-08-19T01:36:43.423Z,71.77
2022-08-19T01:39:15.403Z,71.36
2022-08-19T01:41:43.889Z,71.46
2022-08-19T01:44:17.721Z,71.44
2022-08-19T01:46:49.450Z,71.99
2022-08-19T01:49:22.854Z,71.51
2022-08-19T01:51:52.310Z,71.85
2022-08-19T01:54:27.915Z,71.54
2022-08-19T01:57:02.636Z,71.66
2022-08-19T01:59:33.354Z,71.96
2022-08-19T02:02:02.307Z,71.94
2022-08-19T02:04:30.659Z,71.83
2022-08-19T02:06:59.215Z,72.40
2022-08-19T02:09:27.585Z,71.83
2022-08-19T02:11:56.058Z,71.83
2022-08-19T02:14:24.707Z,72.13
2022-08-19T02:16:53.393Z,72.95
2022-08-19T02:19:21.729Z,72.82
2022-08-19T02:21:50.110Z,72.25
2022-08-19T02:24:18.601Z,72.48
2022-08-19T02:26:46.922Z,72.68
2022-08-19T02:29:15.189Z,72.70
2022-08-19T02:31:43.591Z,73.42
2022-08-19T02:34:11.982Z,72.79
2022-08-19T02:36:42.357Z,73.06
2022-08-19T02:39:11.975Z,73.38
2022-08-19T02:41:40.440Z,73.27
2022-08-19T02:44:29.238Z,73.20
2022-08-19T02:46:57.165Z,73.53
2022-08-19T02:49:25.474Z,73.82
2022-08-19T02:51:53.859Z,74.62
2022-08-19T02:54:22.195Z,74.35
2022-08-19T02:56:51.163Z,73.66
2022-08-19T02:59:22.965Z,73.94
2022-08-19T03:01:51.732Z,73.95
2022-08-19T03:04:20.648Z,74.69
2022-08-19T03:06:49.624Z,74.79
2022-08-19T03:09:20.807Z,74.37
2022-08-19T03:11:49.894Z,74.20
2022-08-19T03:14:21.302Z,75.51
2022-08-19T03:16:52.102Z,75.32
2022-08-19T03:19:24.956Z,74.60
2022-08-19T03:21:53.409Z,74.78
2022-08-19T03:24:22.330Z,74.94
2022-08-19T03:26:54.160Z,75.17
2022-08-19T03:29:30.259Z,75.17
2022-08-19T03:32:05.356Z,74.59
2022-08-19T03:34:35.900Z,74.39
2022-08-19T03:37:08.631Z,75.40
2022-08-19T03:39:40.091Z,75.55
2022-08-19T03:42:32.183Z,75.44
2022-08-19T03:44:56.886Z,74.61
2022-08-19T03:47:25.271Z,74.64
2022-08-19T03:49:53.649Z,75.10
2022-08-19T03:52:22.027Z,75.66
2022-08-19T03:54:50.321Z,76.45
2022-08-19T03:57:18.639Z,75.94
2022-08-19T03:59:46.981Z,76.82
2022-08-19T04:02:15.509Z,76.44
2022-08-19T04:04:45.371Z,77.07
2022-08-19T04:07:19.277Z,76.97
2022-08-19T04:09:47.611Z,76.02
2022-08-19T04:12:16.415Z,76.52
2022-08-19T04:14:44.727Z,76.26
2022-08-19T04:17:15.262Z,76.37
2022-08-19T04:19:44.182Z,75.67
2022-08-19T04:22:12.850Z,75.90
2022-08-19T04:24:41.218Z,76.44
2022-08-19T04:27:09.575Z,76.22
2022-08-19T04:29:40.656Z,75.92
2022-08-19T04:32:09.874Z,75.57
2022-08-19T04:35:02.529Z,75.23
2022-08-19T04:37:31.872Z,75.20
2022-08-19T04:40:25.800Z,74.89
2022-08-19T04:42:54.793Z,74.29
2022-08-19T04:45:23.835Z,74.08
2022-08-19T04:47:58.850Z,73.78
2022-08-19T04:50:46.412Z,73.59
2022-08-19T04:53:14.738Z,73.45
2022-08-19T04:55:44.032Z,73.06
2022-08-19T04:58:12.485Z,72.82
2022-08-19T05:00:41.471Z,72.72
2022-08-19T05:03:10.120Z,72.40
2022-08-19T05:05:44.784Z,71.67
2022-08-19T05:08:15.331Z,71.40
2022-08-19T05:10:44.329Z,71.27
2022-08-19T05:13:12.649Z,71.08
2022-08-19T05:15:41.132Z,70.74
2022-08-19T05:18:28.523Z,70.39
2022-08-19T05:21:15.791Z,69.83
2022-08-19T05:23:45.642Z,69.12
2022-08-19T05:26:14.003Z,68.11
2022-08-19T05:28:42.329Z,68.19
2022-08-19T05:31:10.695Z,67.98
2022-08-19T05:33:40.824Z,67.80
2022-08-19T05:36:09.308Z,67.35
2022-08-19T05:38:37.967Z,65.87
2022-08-19T05:41:11.980Z,65.57
2022-08-19T05:43:40.387Z,65.35
2022-08-19T05:46:09.871Z,64.91
2022-08-19T05:48:38.242Z,64.43
2022-08-19T05:51:07.639Z,63.83
2022-08-19T05:53:36.693Z,63.14
2022-08-19T05:56:08.090Z,62.26
2022-08-19T05:58:37.568Z,62.24
2022-08-19T06:01:11.757Z,61.30
2022-08-19T06:03:40.879Z,61.06
2022-08-19T06:06:11.840Z,60.19
2022-08-19T06:08:40.293Z,59.57
2022-08-19T06:11:24.778Z,58.74
2022-08-19T06:13:59.670Z,58.06
2022-08-19T06:16:29.533Z,57.29
2022-08-19T06:19:00.808Z,56.15
2022-08-19T06:21:31.069Z,56.13
2022-08-19T06:23:59.964Z,55.90
2022-08-19T06:26:28.910Z,56.32
2022-08-19T06:28:57.384Z,55.67
2022-08-19T06:31:29.453Z,54.47
2022-08-19T06:33:57.835Z,55.14
2022-08-19T06:36:35.120Z,54.91
2022-08-19T06:39:10.517Z,54.97
2022-08-19T06:41:47.325Z,54.91
2022-08-19T06:44:21.725Z,55.09
2022-08-19T06:46:53.619Z,54.38
2022-08-19T06:49:24.597Z,54.20
2022-08-19T06:51:53.041Z,53.61
2022-08-19T06:54:21.734Z,52.96
2022-08-19T06:56:52.110Z,52.86
2022-08-19T06:59:24.257Z,50.71
2022-08-19T07:01:55.234Z,50.35
2022-08-19T07:04:27.194Z,51.24
2022-08-19T07:07:43.151Z,51.04
2022-08-19T07:10:11.559Z,49.07
2022-08-19T07:12:42.024Z,48.96
2022-08-19T07:15:12.054Z,48.78
2022-08-19T07:17:41.899Z,49.09
2022-08-19T07:20:11.253Z,48.32
2022-08-19T07:22:40.859Z,48.91
2022-08-19T07:25:10.851Z,48.52
2022-08-19T07:27:39.704Z,48.60
2022-08-19T07:30:12.052Z,48.23
2022-08-19T07:32:42.040Z,47.26
2022-08-19T07:35:11.289Z,47.35
2022-08-19T07:37:45.225Z,45.22
2022-08-19T07:40:14.278Z,44.93
2022-08-19T07:42:43.552Z,44.46
2022-08-19T07:45:12.028Z,45.28
2022-08-19T07:47:48.139Z,45.29
2022-08-19T07:50:20.998Z,43.86
2022-08-19T07:52:50.984Z,43.17
2022-08-19T07:55:41.159Z,42.69
2022-08-19T07:58:52.916Z,41.81
2022-08-19T08:04:43.012Z,41.04
2022-08-19T08:07:31.520Z,41.01
2022-08-19T08:10:12.606Z,41.14
2022-08-19T08:13:36.440Z,41.66
2022-08-19T08:16:10.378Z,40.17
2022-08-19T08:18:50.243Z,40.23
2022-08-19T08:21:19.269Z,39.32
2022-08-19T08:23:47.804Z,38.46
2022-08-19T08:26:17.291Z,38.68
2022-08-19T08:28:49.720Z,38.58
2022-08-19T08:31:20.285Z,38.03
2022-08-19T08:33:48.773Z,38.06
2022-08-19T08:36:18.831Z,38.01
2022-08-19T08:38:47.806Z,36.71
2022-08-19T08:41:45.154Z,36.50
2022-08-19T08:45:16.882Z,35.58
2022-08-19T08:47:49.785Z,35.13
2022-08-19T08:50:26.468Z,35.38
2022-08-19T08:52:58.097Z,35.24
2022-08-19T08:55:36.432Z,34.75
2022-08-19T08:58:19.115Z,34.58
2022-08-19T09:00:49.689Z,34.62
2022-08-19T09:03:27.856Z,35.29
2022-08-19T09:06:17.638Z,35.07
2022-08-19T09:13:28.627Z,34.54
2022-08-19T09:16:16.208Z,35.34
2022-08-19T09:22:55.380Z,33.79
2022-08-19T09:25:29.408Z,33.20
2022-08-19T09:28:02.898Z,33.19
2022-08-19T09:34:39.325Z,32.38
2022-08-19T09:37:13.469Z,32.40
2022-08-19T09:39:43.865Z,31.92
2022-08-19T09:42:16.153Z,31.45
2022-08-19T09:44:46.472Z,30.72
2022-08-19T09:47:16.443Z,30.43
2022-08-19T09:49:50.034Z,30.74
2022-08-19T09:52:19.232Z,30.92
2022-08-19T09:54:51.880Z,31.19
2022-08-19T09:57:20.568Z,30.65
2022-08-19T09:59:49.500Z,30.44
2022-08-19T10:02:22.169Z,30.87
2022-08-19T10:05:29.623Z,29.92
2022-08-19T10:08:02.563Z,30.22
2022-08-19T10:10:37.588Z,29.06
2022-08-19T10:13:12.046Z,29.54
2022-08-19T10:15:47.714Z,29.26
2022-08-19T10:18:19.579Z,29.37
2022-08-19T10:21:11.573Z,28.68
2022-08-19T10:23:55.494Z,28.44
2022-08-19T10:26:34.103Z,28.73
2022-08-19T10:29:02.831Z,28.45
2022-08-19T10:32:01.017Z,29.02
2022-08-19T10:34:27.438Z,28.73
2022-08-19T10:37:00.855Z,28.15
2022-08-19T10:39:41.141Z,28.76
2022-08-19T10:42:14.427Z,29.03
2022-08-19T10:44:43.698Z,27.28
2022-08-19T10:47:17.704Z,27.47
2022-08-19T10:50:14.216Z,26.90
2022-08-19T10:52:49.949Z,26.95
2022-08-19T10:55:43.856Z,27.68
2022-08-19T10:58:18.293Z,29.01
2022-08-19T11:04:36.429Z,28.24
2022-08-19T11:07:13.030Z,26.67
2022-08-19T11:09:43.744Z,25.06
2022-08-19T11:12:13.890Z,25.90
2022-08-19T11:14:42.463Z,25.35
2022-08-19T11:17:12.400Z,25.68
2022-08-19T11:19:40.958Z,25.69
2022-08-19T11:22:12.430Z,26.29
2022-08-19T11:24:47.778Z,26.39
2022-08-19T11:27:16.264Z,25.04
2022-08-19T11:29:45.460Z,25.69
2022-08-19T11:32:14.248Z,25.43
2022-08-19T11:34:42.742Z,25.30
2022-08-19T11:37:11.150Z,24.52
2022-08-19T11:39:39.612Z,25.25
2022-08-19T11:42:27.669Z,24.67
2022-08-19T11:44:56.372Z,24.32
2022-08-19T11:47:25.301Z,24.07
2022-08-19T11:49:54.615Z,24.76
2022-08-19T11:52:22.933Z,24.40
2022-08-19T11:54:51.525Z,25.59
2022-08-19T11:57:20.981Z,24.90
2022-08-19T11:59:51.637Z,24.59
2022-08-19T12:02:20.910Z,24.62
2022-08-19T12:04:49.247Z,25.01
2022-08-19T12:07:18.114Z,24.25
2022-08-19T12:09:46.509Z,25.04
2022-08-19T12:12:17.491Z,24.83
2022-08-19T12:14:47.678Z,25.48
2022-08-19T12:17:16.611Z,25.83
2022-08-19T12:19:45.704Z,25.29
2022-08-19T12:22:14.029Z,24.90
2022-08-19T12:24:42.486Z,24.87
2022-08-19T12:27:12.815Z,24.78
2022-08-19T12:29:42.700Z,24.91
2022-08-19T12:32:12.029Z,24.50
2022-08-19T12:34:40.925Z,24.49
2022-08-19T12:37:10.113Z,24.45
2022-08-19T12:39:42.591Z,24.61
2022-08-19T12:42:12.836Z,24.37
2022-08-19T12:44:43.670Z,24.22
2022-08-19T12:47:18.221Z,24.69
2022-08-19T12:49:55.164Z,25.59
2022-08-19T12:52:29.261Z,26.54
2022-08-19T12:54:58.393Z,24.61
2022-08-19T12:57:31.975Z,23.13
2022-08-19T13:00:22.160Z,24.40
2022-08-19T13:02:54.124Z,24.26
2022-08-19T13:05:28.628Z,24.15
2022-08-19T13:08:00.716Z,24.11
2022-08-19T13:10:36.066Z,24.34
2022-08-19T13:13:09.837Z,25.83
2022-08-19T13:15:43.975Z,26.00
2022-08-19T13:18:13.730Z,23.96
2022-08-19T13:20:42.173Z,25.01
2022-08-19T13:23:21.249Z,24.10
2022-08-19T13:26:04.669Z,24.82
2022-08-19T13:28:52.737Z,25.09
2022-08-19T13:31:42.183Z,24.33
2022-08-19T13:34:10.777Z,26.09
2022-08-19T13:36:39.907Z,25.95
2022-08-19T13:39:10.043Z,24.88
2022-08-19T13:41:39.342Z,25.37
2022-08-19T13:44:07.839Z,26.02
2022-08-19T13:46:36.213Z,23.80
2022-08-19T13:49:05.406Z,24.05
2022-08-19T13:51:33.712Z,24.33
2022-08-19T13:54:40.813Z,24.46
2022-08-19T13:57:09.170Z,24.62
2022-08-19T13:59:37.607Z,25.11
2022-08-19T14:02:06.728Z,25.17
2022-08-19T14:04:35.095Z,25.07
2022-08-19T14:07:03.477Z,24.99
2022-08-19T14:09:32.125Z,25.47
2022-08-19T14:12:00.472Z,25.03
2022-08-19T14:14:30.256Z,25.04
2022-08-19T14:16:58.684Z,25.16
2022-08-19T14:19:29.991Z,25.34
2022-08-19T14:21:58.882Z,25.18
2022-08-19T14:24:27.715Z,25.43
2022-08-19T14:26:56.187Z,25.54
2022-08-19T14:29:24.474Z,25.90
2022-08-19T14:31:52.851Z,25.58
2022-08-19T14:34:21.177Z,26.09
2022-08-19T14:36:49.689Z,26.12
2022-08-19T14:39:18.436Z,26.42
2022-08-19T14:41:46.818Z,26.28
2022-08-19T14:44:15.234Z,26.04
2022-08-19T14:46:49.190Z,26.59
2022-08-19T14:49:19.152Z,26.40
2022-08-19T14:51:48.140Z,26.52
2022-08-19T14:54:16.584Z,26.42
2022-08-19T14:56:45.401Z,26.27
2022-08-19T14:59:14.623Z,26.14
2022-08-19T15:01:43.407Z,26.81
2022-08-19T15:04:11.741Z,26.87
2022-08-19T15:06:43.438Z,26.97
2022-08-19T15:09:12.315Z,27.30
2022-08-19T15:11:40.675Z,27.82
2022-08-19T15:14:09.043Z,27.93
2022-08-19T15:16:42.845Z,28.04
2022-08-19T15:19:11.203Z,28.18
2022-08-19T15:21:39.539Z,28.19
2022-08-19T15:24:07.955Z,28.39
2022-08-19T15:26:36.348Z,28.61
2022-08-19T15:29:05.334Z,28.35
2022-08-19T15:31:38.309Z,28.02
2022-08-19T15:34:08.579Z,28.56
2022-08-19T15:36:38.042Z,28.70
2022-08-19T15:39:07.636Z,28.59
2022-08-19T15:41:37.263Z,28.80
2022-08-19T15:44:12.635Z,28.59
2022-08-19T15:46:44.128Z,29.15
2022-08-19T15:49:14.711Z,29.31
2022-08-19T15:51:46.051Z,29.45
2022-08-19T15:54:17.834Z,29.35
2022-08-19T16:00:12.110Z,29.88
2022-08-19T16:02:59.603Z,30.01
2022-08-19T16:05:47.686Z,29.98
2022-08-19T16:08:16.337Z,30.60
2022-08-19T16:10:44.638Z,30.28
2022-08-19T16:13:12.957Z,30.56
2022-08-19T16:15:43.332Z,30.68
2022-08-19T16:18:11.811Z,31.05
2022-08-19T16:20:40.130Z,31.30
2022-08-19T16:23:08.589Z,31.61
2022-08-19T16:25:36.949Z,32.19
2022-08-19T16:28:06.523Z,32.34
2022-08-19T16:30:39.337Z,32.55
2022-08-19T16:33:09.037Z,32.89
2022-08-19T16:35:37.919Z,33.23
2022-08-19T16:38:07.244Z,33.41
2022-08-19T16:40:36.456Z,33.60
2022-08-19T16:43:04.936Z,33.86
2022-08-19T16:45:33.426Z,34.23
2022-08-19T16:48:01.905Z,34.67
2022-08-19T16:50:48.225Z,35.14
2022-08-19T16:53:21.714Z,35.54
2022-08-19T16:55:53.673Z,35.11
2022-08-19T16:58:29.752Z,34.66
2022-08-19T17:01:03.467Z,34.94
2022-08-19T17:03:36.426Z,35.18
2022-08-19T17:06:18.931Z,35.35
2022-08-19T17:08:52.285Z,35.78
2022-08-19T17:11:22.896Z,35.99
2022-08-19T17:13:51.613Z,36.09
2022-08-19T17:16:24.739Z,36.12
2022-08-19T17:18:55.178Z,36.24
2022-08-19T17:21:30.057Z,36.39
2022-08-19T17:24:00.207Z,36.86
2022-08-19T17:26:29.330Z,37.04
2022-08-19T17:28:59.437Z,37.19
2022-08-19T17:31:30.420Z,37.58
2022-08-19T17:34:00.229Z,37.96
2022-08-19T17:36:32.246Z,38.10
2022-08-19T17:39:02.076Z,38.30
2022-08-19T17:41:30.751Z,38.69
2022-08-19T17:43:59.278Z,39.07
2022-08-19T17:46:30.414Z,39.38
2022-08-19T17:48:58.913Z,39.71
2022-08-19T17:51:33.085Z,39.79
2022-08-19T17:54:02.320Z,40.34
2022-08-19T17:56:30.669Z,40.53
2022-08-19T17:59:00.613Z,40.62
2022-08-19T18:01:43.922Z,40.77
2022-08-19T18:04:19.963Z,40.82
2022-08-19T18:06:53.181Z,40.92
2022-08-19T18:09:41.592Z,40.96
2022-08-19T18:12:18.074Z,40.94
2022-08-19T18:14:46.859Z,41.05
2022-08-19T18:17:19.440Z,41.18
2022-08-19T18:19:48.083Z,41.45
2022-08-19T18:22:38.139Z,41.82
2022-08-19T18:25:12.144Z,41.86
2022-08-19T18:27:43.584Z,42.14
2022-08-19T18:30:13.958Z,42.29
2022-08-19T18:32:44.322Z,42.63
2022-08-19T18:35:15.475Z,43.05
2022-08-19T18:37:45.641Z,43.53
2022-08-19T18:40:37.677Z,43.85
2022-08-19T18:43:12.569Z,44.30
2022-08-19T18:46:01.954Z,44.70
2022-08-19T18:48:49.754Z,44.91
2022-08-19T18:51:18.922Z,45.19
2022-08-19T18:53:48.906Z,45.36
2022-08-19T18:56:19.952Z,45.47
2022-08-19T18:58:48.222Z,45.68
2022-08-19T19:01:21.183Z,45.97
2022-08-19T19:03:53.650Z,46.10
2022-08-19T19:06:30.021Z,45.89
2022-08-19T19:08:58.533Z,45.87
2022-08-19T19:11:38.996Z,45.61
2022-08-19T19:14:23.261Z,45.53
2022-08-19T19:17:03.815Z,45.48
2022-08-19T19:19:32.964Z,45.92
2022-08-19T19:22:04.339Z,45.84
2022-08-19T19:24:34.034Z,45.78
2022-08-19T19:27:08.667Z,46.76
2022-08-19T19:29:38.027Z,47.29
2022-08-19T19:32:08.705Z,46.62
2022-08-19T19:34:40.484Z,46.96
2022-08-19T19:37:09.157Z,46.98
2022-08-19T19:39:45.777Z,47.17
2022-08-19T19:42:21.434Z,47.48
2022-08-19T19:44:55.053Z,47.49
2022-08-19T19:47:25.945Z,47.57
2022-08-19T19:52:46.805Z,47.57
2022-08-19T19:55:18.495Z,47.81
2022-08-19T19:57:49.031Z,47.89
2022-08-19T20:00:19.226Z,48.17
2022-08-19T20:02:50.899Z,48.69
2022-08-19T20:05:21.714Z,48.92
2022-08-19T20:08:10.973Z,49.25
2022-08-19T20:10:42.025Z,49.21
2022-08-19T20:13:15.715Z,48.92
2022-08-19T20:15:44.418Z,49.14
2022-08-19T20:18:14.761Z,49.32
2022-08-19T20:20:43.848Z,49.56
2022-08-19T20:23:12.310Z,49.78
2022-08-19T20:25:40.720Z,50.09
2022-08-19T20:28:09.935Z,50.18
2022-08-19T20:30:46.589Z,50.02
2022-08-19T20:33:16.652Z,50.41
2022-08-19T20:35:46.047Z,50.56
2022-08-19T20:38:14.394Z,50.59
2022-08-19T20:40:42.954Z,50.82
2022-08-19T20:43:13.751Z,51.56
2022-08-19T20:45:42.337Z,51.79
2022-08-19T20:48:12.627Z,51.91
2022-08-19T20:50:40.995Z,51.88
2022-08-19T20:53:16.477Z,51.69
2022-08-19T20:55:46.903Z,51.68
2022-08-19T20:58:16.263Z,51.69
2022-08-19T21:00:46.066Z,51.56
2022-08-19T21:03:20.600Z,51.43
2022-08-19T21:05:49.124Z,51.31
2022-08-19T21:08:18.540Z,51.62
2022-08-19T21:10:48.822Z,51.70
2022-08-19T21:13:17.880Z,51.58
2022-08-19T21:15:46.799Z,51.69
2022-08-19T21:18:17.787Z,51.94
2022-08-19T21:20:47.494Z,51.87
2022-08-19T21:23:23.322Z,52.20
2022-08-19T21:25:54.494Z,52.44
2022-08-19T21:28:34.381Z,52.61
2022-08-19T21:31:07.294Z,52.81
2022-08-19T21:33:35.762Z,52.75
2022-08-19T21:36:05.421Z,52.72
2022-08-19T21:38:34.007Z,53.03
2022-08-19T21:41:06.098Z,53.28
2022-08-19T21:43:37.018Z,53.24
2022-08-19T21:46:06.589Z,53.66
2022-08-19T21:48:35.481Z,53.41
2022-08-19T21:51:03.941Z,53.23
2022-08-19T21:53:34.563Z,53.06
2022-08-19T21:56:04.572Z,53.13
2022-08-19T21:58:33.850Z,53.34
2022-08-19T22:01:07.997Z,53.24
2022-08-19T22:03:39.362Z,53.27
2022-08-19T22:06:08.628Z,52.96
2022-08-19T22:08:37.305Z,53.08
2022-08-19T22:11:05.705Z,52.85
2022-08-19T22:13:39.987Z,53.05
2022-08-19T22:16:10.023Z,53.29
2022-08-19T22:18:38.394Z,53.94
2022-08-19T22:21:11.361Z,53.85
2022-08-19T22:23:42.688Z,54.37
2022-08-19T22:26:13.323Z,55.40
2022-08-19T22:28:42.954Z,55.85
2022-08-19T22:31:12.231Z,55.47
2022-08-19T22:33:40.901Z,55.50
2022-08-19T22:36:09.307Z,56.19
2022-08-19T22:38:38.531Z,55.88
2022-08-19T22:41:07.936Z,56.43
2022-08-19T22:43:37.711Z,56.75
2022-08-19T22:46:16.829Z,57.50
2022-08-19T22:48:47.944Z,57.31
2022-08-19T22:51:43.251Z,56.77
2022-08-19T22:54:11.638Z,56.83
2022-08-19T22:56:39.997Z,56.68
2022-08-19T22:59:08.779Z,56.67
2022-08-19T23:01:37.569Z,56.60
2022-08-19T23:04:05.979Z,56.54
2022-08-19T23:06:36.455Z,56.74
2022-08-19T23:09:09.166Z,56.67
2022-08-19T23:11:41.671Z,56.81
2022-08-19T23:14:11.566Z,57.16
2022-08-19T23:16:41.695Z,57.19
2022-08-19T23:19:10.270Z,57.13
2022-08-19T23:21:40.146Z,57.20
2022-08-19T23:24:09.361Z,57.44
2022-08-19T23:26:38.655Z,57.66
2022-08-19T23:29:25.819Z,57.72
2022-08-19T23:31:54.144Z,57.29
2022-08-19T23:34:23.078Z,58.31
2022-08-19T23:36:51.439Z,58.14
2022-08-19T23:39:19.738Z,58.77
2022-08-19T23:41:48.084Z,58.92
2022-08-19T23:44:16.465Z,58.34
2022-08-19T23:46:55.301Z,58.78
2022-08-19T23:49:25.847Z,59.87
2022-08-19T23:51:55.854Z,59.13
2022-08-19T23:54:34.254Z,59.27
2022-08-19T23:57:14.584Z,59.45
2022-08-19T23:59:45.787Z,60.09
